sensor_id;sensor_type;location;lat;lon;timestamp;pressure;altitude;pressure_sealevel;temperature;humidity
12213;BME280;6169;44.158;22.788;2023-07-20T00:04:15;100436.69;;;24.25;68.80
12213;BME280;6169;44.158;22.788;2023-07-20T00:09:19;100432.63;;;24.22;67.65
12213;BME280;6169;44.158;22.788;2023-07-20T00:14:22;100426.34;;;24.04;69.23
12213;BME280;6169;44.158;22.788;2023-07-20T00:19:24;100428.81;;;24.06;69.13
12213;BME280;6169;44.158;22.788;2023-07-20T00:24:28;100433.16;;;24.16;68.54
12213;BME280;6169;44.158;22.788;2023-07-20T00:29:31;100423.66;;;23.31;71.59
12213;BME280;6169;44.158;22.788;2023-07-20T00:34:33;100405.25;;;21.82;76.11
12213;BME280;6169;44.158;22.788;2023-07-20T00:39:37;100402.94;;;23.29;72.54
12213;BME280;6169;44.158;22.788;2023-07-20T00:44:39;100398.66;;;23.87;68.95
12213;BME280;6169;44.158;22.788;2023-07-20T00:49:42;100397.06;;;24.37;66.71
12213;BME280;6169;44.158;22.788;2023-07-20T00:54:46;100395.88;;;24.67;65.03
12213;BME280;6169;44.158;22.788;2023-07-20T00:59:49;100406.09;;;24.76;62.67
12213;BME280;6169;44.158;22.788;2023-07-20T01:04:51;100415.19;;;24.43;63.99
12213;BME280;6169;44.158;22.788;2023-07-20T01:10:06;100411.25;;;23.85;67.49
12213;BME280;6169;44.158;22.788;2023-07-20T01:15:12;100429.47;;;24.33;63.98
12213;BME280;6169;44.158;22.788;2023-07-20T01:20:16;100424.50;;;23.06;66.70
12213;BME280;6169;44.158;22.788;2023-07-20T01:25:33;100425.13;;;23.20;70.41
12213;BME280;6169;44.158;22.788;2023-07-20T01:30:50;100425.75;;;23.43;64.66
12213;BME280;6169;44.158;22.788;2023-07-20T01:35:57;100430.13;;;24.50;63.88
12213;BME280;6169;44.158;22.788;2023-07-20T01:41:01;100270.59;;;23.38;62.11
12213;BME280;6169;44.158;22.788;2023-07-20T01:46:04;100425.31;;;23.79;63.77
12213;BME280;6169;44.158;22.788;2023-07-20T01:51:07;100429.41;;;23.73;67.33
12213;BME280;6169;44.158;22.788;2023-07-20T01:56:10;100428.19;;;24.51;64.15
12213;BME280;6169;44.158;22.788;2023-07-20T02:01:13;100428.75;;;24.86;62.60
12213;BME280;6169;44.158;22.788;2023-07-20T02:06:16;100414.22;;;24.60;63.47
12213;BME280;6169;44.158;22.788;2023-07-20T02:11:19;100433.22;;;23.60;63.16
12213;BME280;6169;44.158;22.788;2023-07-20T02:16:21;100425.00;;;22.64;67.30
12213;BME280;6169;44.158;22.788;2023-07-20T02:21:24;100427.53;;;23.86;67.25
12213;BME280;6169;44.158;22.788;2023-07-20T02:26:26;100441.59;;;22.73;66.73
12213;BME280;6169;44.158;22.788;2023-07-20T02:31:29;100441.28;;;22.48;70.71
12213;BME280;6169;44.158;22.788;2023-07-20T02:36:32;100445.16;;;22.30;69.65
12213;BME280;6169;44.158;22.788;2023-07-20T02:41:35;100436.84;;;22.30;69.19
12213;BME280;6169;44.158;22.788;2023-07-20T02:46:37;100420.88;;;21.78;72.14
12213;BME280;6169;44.158;22.788;2023-07-20T02:51:40;100426.28;;;22.76;70.57
12213;BME280;6169;44.158;22.788;2023-07-20T02:56:42;100433.72;;;23.92;65.61
12213;BME280;6169;44.158;22.788;2023-07-20T03:01:45;100449.72;;;24.03;63.55
12213;BME280;6169;44.158;22.788;2023-07-20T03:06:48;100438.34;;;23.23;67.76
12213;BME280;6169;44.158;22.788;2023-07-20T03:11:50;100430.38;;;22.78;68.86
12213;BME280;6169;44.158;22.788;2023-07-20T03:16:53;100432.50;;;23.80;65.36
12213;BME280;6169;44.158;22.788;2023-07-20T03:21:56;100428.97;;;24.31;62.96
12213;BME280;6169;44.158;22.788;2023-07-20T03:26:59;100440.69;;;23.68;64.56
12213;BME280;6169;44.158;22.788;2023-07-20T03:32:01;100448.31;;;23.24;67.76
12213;BME280;6169;44.158;22.788;2023-07-20T03:37:05;100443.84;;;23.58;64.66
12213;BME280;6169;44.158;22.788;2023-07-20T03:42:07;100428.50;;;25.46;56.21
12213;BME280;6169;44.158;22.788;2023-07-20T03:47:10;100437.03;;;26.11;53.82
12213;BME280;6169;44.158;22.788;2023-07-20T03:52:14;100445.78;;;24.34;61.44
12213;BME280;6169;44.158;22.788;2023-07-20T03:57:16;100406.50;;;23.29;64.59
12213;BME280;6169;44.158;22.788;2023-07-20T04:02:18;100444.09;;;22.83;68.95
12213;BME280;6169;44.158;22.788;2023-07-20T04:07:22;100429.75;;;23.72;64.72
12213;BME280;6169;44.158;22.788;2023-07-20T04:12:24;100427.09;;;23.84;63.68
12213;BME280;6169;44.158;22.788;2023-07-20T04:17:26;100432.69;;;23.75;65.28
12213;BME280;6169;44.158;22.788;2023-07-20T04:22:30;100418.63;;;23.16;65.60
12213;BME280;6169;44.158;22.788;2023-07-20T04:27:32;100419.69;;;23.58;65.66
12213;BME280;6169;44.158;22.788;2023-07-20T04:32:34;100426.75;;;23.86;64.43
12213;BME280;6169;44.158;22.788;2023-07-20T04:37:38;100424.97;;;23.43;66.59
12213;BME280;6169;44.158;22.788;2023-07-20T04:42:46;100430.19;;;23.18;67.93
12213;BME280;6169;44.158;22.788;2023-07-20T04:47:48;100438.34;;;23.88;66.24
12213;BME280;6169;44.158;22.788;2023-07-20T04:52:52;100440.88;;;24.10;65.74
12213;BME280;6169;44.158;22.788;2023-07-20T04:57:54;100423.22;;;24.15;65.46
12213;BME280;6169;44.158;22.788;2023-07-20T05:02:56;100419.81;;;24.09;66.30
12213;BME280;6169;44.158;22.788;2023-07-20T05:08:00;100426.91;;;23.42;68.54
12213;BME280;6169;44.158;22.788;2023-07-20T05:13:02;100428.91;;;23.24;68.55
12213;BME280;6169;44.158;22.788;2023-07-20T05:18:04;100435.88;;;23.48;68.42
12213;BME280;6169;44.158;22.788;2023-07-20T05:23:08;100454.13;;;23.49;69.16
12213;BME280;6169;44.158;22.788;2023-07-20T05:28:10;100463.63;;;23.48;70.45
12213;BME280;6169;44.158;22.788;2023-07-20T05:33:12;100478.31;;;22.87;72.36
12213;BME280;6169;44.158;22.788;2023-07-20T05:38:16;100500.13;;;23.67;71.20
12213;BME280;6169;44.158;22.788;2023-07-20T05:43:18;100503.78;;;23.89;69.06
12213;BME280;6169;44.158;22.788;2023-07-20T05:48:20;100482.28;;;25.16;62.77
12213;BME280;6169;44.158;22.788;2023-07-20T05:53:23;100512.22;;;24.78;65.16
12213;BME280;6169;44.158;22.788;2023-07-20T05:58:26;100507.88;;;24.68;65.82
12213;BME280;6169;44.158;22.788;2023-07-20T06:03:28;100524.63;;;25.01;65.56
12213;BME280;6169;44.158;22.788;2023-07-20T06:08:31;100527.06;;;25.24;64.91
12213;BME280;6169;44.158;22.788;2023-07-20T06:13:34;100540.75;;;24.87;64.02
12213;BME280;6169;44.158;22.788;2023-07-20T06:18:36;100552.25;;;24.09;64.30
12213;BME280;6169;44.158;22.788;2023-07-20T06:23:41;100570.50;;;24.65;64.93
12213;BME280;6169;44.158;22.788;2023-07-20T06:28:43;100570.47;;;24.95;64.08
12213;BME280;6169;44.158;22.788;2023-07-20T06:33:45;100569.75;;;24.47;62.41
12213;BME280;6169;44.158;22.788;2023-07-20T06:38:48;100573.38;;;24.99;60.18
12213;BME280;6169;44.158;22.788;2023-07-20T06:43:51;100578.91;;;25.07;63.76
12213;BME280;6169;44.158;22.788;2023-07-20T06:48:58;100588.44;;;25.27;62.94
12213;BME280;6169;44.158;22.788;2023-07-20T06:54:02;100579.84;;;25.53;60.42
12213;BME280;6169;44.158;22.788;2023-07-20T06:59:05;100564.47;;;25.68;59.15
12213;BME280;6169;44.158;22.788;2023-07-20T07:04:07;100580.88;;;25.82;60.05
12213;BME280;6169;44.158;22.788;2023-07-20T07:09:11;100590.00;;;25.49;60.39
12213;BME280;6169;44.158;22.788;2023-07-20T07:14:13;100577.56;;;25.34;60.77
12213;BME280;6169;44.158;22.788;2023-07-20T07:19:16;100600.72;;;24.67;63.59
12213;BME280;6169;44.158;22.788;2023-07-20T07:24:19;100591.06;;;24.35;61.15
12213;BME280;6169;44.158;22.788;2023-07-20T07:29:22;100585.28;;;23.93;63.73
12213;BME280;6169;44.158;22.788;2023-07-20T07:34:24;100574.75;;;24.24;61.85
12213;BME280;6169;44.158;22.788;2023-07-20T07:39:27;100577.25;;;24.47;60.10
12213;BME280;6169;44.158;22.788;2023-07-20T07:44:30;100585.56;;;24.00;62.08
12213;BME280;6169;44.158;22.788;2023-07-20T07:49:33;100575.19;;;23.71;61.48
12213;BME280;6169;44.158;22.788;2023-07-20T07:54:36;100547.56;;;23.83;62.22
12213;BME280;6169;44.158;22.788;2023-07-20T07:59:38;100530.97;;;24.21;60.55
12213;BME280;6169;44.158;22.788;2023-07-20T08:04:41;100514.75;;;23.85;61.14
12213;BME280;6169;44.158;22.788;2023-07-20T08:09:44;100493.56;;;24.19;61.08
12213;BME280;6169;44.158;22.788;2023-07-20T08:14:46;100461.72;;;24.46;60.19
12213;BME280;6169;44.158;22.788;2023-07-20T08:19:49;100439.19;;;24.68;57.97
12213;BME280;6169;44.158;22.788;2023-07-20T08:24:53;100418.47;;;25.78;53.34
12213;BME280;6169;44.158;22.788;2023-07-20T08:29:55;100407.03;;;25.46;54.03
12213;BME280;6169;44.158;22.788;2023-07-20T08:34:57;100392.69;;;26.05;55.51
12213;BME280;6169;44.158;22.788;2023-07-20T08:40:00;100368.22;;;25.62;55.24
12213;BME280;6169;44.158;22.788;2023-07-20T08:45:08;100396.16;;;26.27;55.41
12213;BME280;6169;44.158;22.788;2023-07-20T08:50:11;100427.75;;;26.07;56.27
12213;BME280;6169;44.158;22.788;2023-07-20T08:55:16;100451.41;;;26.90;54.73
12213;BME280;6169;44.158;22.788;2023-07-20T09:00:20;100456.94;;;26.74;56.22
12213;BME280;6169;44.158;22.788;2023-07-20T09:05:23;100449.72;;;27.13;55.06
12213;BME280;6169;44.158;22.788;2023-07-20T09:10:27;100436.75;;;27.05;54.76
12213;BME280;6169;44.158;22.788;2023-07-20T09:15:30;100414.00;;;27.19;54.62
12213;BME280;6169;44.158;22.788;2023-07-20T09:20:33;100437.47;;;27.46;53.63
12213;BME280;6169;44.158;22.788;2023-07-20T09:25:37;100451.88;;;27.96;53.16
12213;BME280;6169;44.158;22.788;2023-07-20T09:30:41;100446.66;;;27.47;54.66
12213;BME280;6169;44.158;22.788;2023-07-20T09:35:43;100450.84;;;27.41;53.01
12213;BME280;6169;44.158;22.788;2023-07-20T09:40:48;100447.31;;;27.56;50.90
12213;BME280;6169;44.158;22.788;2023-07-20T09:45:50;100458.19;;;27.93;48.12
12213;BME280;6169;44.158;22.788;2023-07-20T09:51:00;100453.38;;;27.02;49.67
12213;BME280;6169;44.158;22.788;2023-07-20T09:56:05;100450.84;;;27.41;49.35
12213;BME280;6169;44.158;22.788;2023-07-20T10:01:10;100442.25;;;27.77;49.39
12213;BME280;6169;44.158;22.788;2023-07-20T10:06:19;100449.28;;;27.87;49.11
12213;BME280;6169;44.158;22.788;2023-07-20T10:11:25;100446.59;;;27.59;48.19
12213;BME280;6169;44.158;22.788;2023-07-20T10:16:31;100442.47;;;28.00;48.57
12213;BME280;6169;44.158;22.788;2023-07-20T10:21:40;100435.41;;;28.42;44.14
12213;BME280;6169;44.158;22.788;2023-07-20T10:26:45;100433.63;;;28.34;43.33
12213;BME280;6169;44.158;22.788;2023-07-20T10:31:48;100434.41;;;28.50;44.79
12213;BME280;6169;44.158;22.788;2023-07-20T10:36:50;100445.06;;;28.80;44.76
12213;BME280;6169;44.158;22.788;2023-07-20T10:42:03;100436.78;;;28.48;43.40
12213;BME280;6169;44.158;22.788;2023-07-20T10:47:09;100408.69;;;29.19;43.65
12213;BME280;6169;44.158;22.788;2023-07-20T10:52:12;100432.97;;;29.14;42.71
12213;BME280;6169;44.158;22.788;2023-07-20T10:57:30;100427.00;;;29.58;42.27
12213;BME280;6169;44.158;22.788;2023-07-20T11:02:42;100432.16;;;28.95;44.75
12213;BME280;6169;44.158;22.788;2023-07-20T11:07:44;100427.50;;;29.41;44.47
12213;BME280;6169;44.158;22.788;2023-07-20T11:13:22;100416.63;;;28.58;45.94
12213;BME280;6169;44.158;22.788;2023-07-20T11:18:26;100416.78;;;28.65;47.14
12213;BME280;6169;44.158;22.788;2023-07-20T11:23:29;100420.63;;;28.77;44.11
12213;BME280;6169;44.158;22.788;2023-07-20T11:28:35;100424.47;;;29.07;39.52
12213;BME280;6169;44.158;22.788;2023-07-20T11:33:38;100429.31;;;28.72;39.78
12213;BME280;6169;44.158;22.788;2023-07-20T11:38:41;100406.53;;;29.12;39.43
12213;BME280;6169;44.158;22.788;2023-07-20T11:43:47;100400.19;;;29.57;41.49
12213;BME280;6169;44.158;22.788;2023-07-20T11:48:56;100408.59;;;30.07;41.71
12213;BME280;6169;44.158;22.788;2023-07-20T11:54:00;100402.91;;;29.77;42.36
12213;BME280;6169;44.158;22.788;2023-07-20T11:59:06;100408.25;;;29.63;42.54
12213;BME280;6169;44.158;22.788;2023-07-20T12:04:08;100382.44;;;29.99;41.25
12213;BME280;6169;44.158;22.788;2023-07-20T12:09:13;100390.19;;;29.83;39.31
12213;BME280;6169;44.158;22.788;2023-07-20T12:14:17;100383.25;;;29.50;38.95
12213;BME280;6169;44.158;22.788;2023-07-20T12:19:20;100386.31;;;29.91;39.44
12213;BME280;6169;44.158;22.788;2023-07-20T12:24:22;100382.03;;;29.74;37.65
12213;BME280;6169;44.158;22.788;2023-07-20T12:29:25;100388.47;;;29.75;37.39
12213;BME280;6169;44.158;22.788;2023-07-20T12:34:28;100378.28;;;29.90;38.64
12213;BME280;6169;44.158;22.788;2023-07-20T12:39:30;100369.72;;;29.79;37.31
12213;BME280;6169;44.158;22.788;2023-07-20T12:44:34;100376.66;;;30.12;38.21
12213;BME280;6169;44.158;22.788;2023-07-20T12:49:37;100368.50;;;30.33;38.73
12213;BME280;6169;44.158;22.788;2023-07-20T12:54:39;100365.97;;;30.21;38.54
12213;BME280;6169;44.158;22.788;2023-07-20T12:59:43;100368.72;;;29.94;36.60
12213;BME280;6169;44.158;22.788;2023-07-20T13:04:46;100369.63;;;29.98;36.67
12213;BME280;6169;44.158;22.788;2023-07-20T13:09:49;100363.31;;;30.32;35.91
12213;BME280;6169;44.158;22.788;2023-07-20T13:14:54;100367.28;;;30.98;35.12
12213;BME280;6169;44.158;22.788;2023-07-20T13:19:56;100358.03;;;30.57;34.74
12213;BME280;6169;44.158;22.788;2023-07-20T13:24:58;100357.28;;;30.60;36.09
12213;BME280;6169;44.158;22.788;2023-07-20T13:30:02;100358.34;;;31.23;35.15
12213;BME280;6169;44.158;22.788;2023-07-20T13:35:07;100364.69;;;30.79;33.62
12213;BME280;6169;44.158;22.788;2023-07-20T13:40:10;100353.78;;;30.40;34.13
12213;BME280;6169;44.158;22.788;2023-07-20T13:45:15;100342.31;;;30.52;34.80
12213;BME280;6169;44.158;22.788;2023-07-20T13:50:18;100345.66;;;31.40;35.34
12213;BME280;6169;44.158;22.788;2023-07-20T13:55:20;100348.31;;;30.84;35.40
12213;BME280;6169;44.158;22.788;2023-07-20T14:00:24;100335.56;;;30.23;36.13
12213;BME280;6169;44.158;22.788;2023-07-20T14:05:31;100355.84;;;30.43;36.41
12213;BME280;6169;44.158;22.788;2023-07-20T14:10:34;100351.09;;;30.51;35.84
12213;BME280;6169;44.158;22.788;2023-07-20T14:15:39;100354.50;;;31.38;35.77
12213;BME280;6169;44.158;22.788;2023-07-20T14:20:41;100350.78;;;31.75;34.98
12213;BME280;6169;44.158;22.788;2023-07-20T14:25:44;100361.69;;;31.35;34.48
12213;BME280;6169;44.158;22.788;2023-07-20T14:30:48;100315.78;;;31.17;36.01
12213;BME280;6169;44.158;22.788;2023-07-20T14:35:50;100352.97;;;31.51;34.43
12213;BME280;6169;44.158;22.788;2023-07-20T14:40:53;100334.81;;;30.97;34.53
12213;BME280;6169;44.158;22.788;2023-07-20T14:45:57;100336.53;;;31.05;34.54
12213;BME280;6169;44.158;22.788;2023-07-20T14:51:00;100333.91;;;30.86;34.65
12213;BME280;6169;44.158;22.788;2023-07-20T14:56:02;100338.72;;;30.52;35.03
12213;BME280;6169;44.158;22.788;2023-07-20T15:01:06;100333.50;;;30.20;35.67
12213;BME280;6169;44.158;22.788;2023-07-20T15:06:10;100328.25;;;30.48;34.27
12213;BME280;6169;44.158;22.788;2023-07-20T15:11:13;100350.88;;;30.33;34.27
12213;BME280;6169;44.158;22.788;2023-07-20T15:16:16;100327.72;;;30.39;34.86
12213;BME280;6169;44.158;22.788;2023-07-20T15:21:19;100337.47;;;30.49;35.37
12213;BME280;6169;44.158;22.788;2023-07-20T15:26:21;100349.69;;;30.64;34.24
12213;BME280;6169;44.158;22.788;2023-07-20T15:31:25;100340.75;;;30.55;33.17
12213;BME280;6169;44.158;22.788;2023-07-20T15:36:28;100357.34;;;31.45;32.17
12213;BME280;6169;44.158;22.788;2023-07-20T15:41:31;100363.06;;;30.78;32.45
12213;BME280;6169;44.158;22.788;2023-07-20T15:46:49;100358.75;;;31.21;31.99
12213;BME280;6169;44.158;22.788;2023-07-20T15:51:51;100355.25;;;31.35;32.43
12213;BME280;6169;44.158;22.788;2023-07-20T15:56:53;100360.94;;;31.46;31.30
12213;BME280;6169;44.158;22.788;2023-07-20T16:01:57;100345.41;;;30.43;31.46
12213;BME280;6169;44.158;22.788;2023-07-20T16:06:59;100349.50;;;30.83;32.20
12213;BME280;6169;44.158;22.788;2023-07-20T16:12:03;100362.72;;;30.83;32.68
12213;BME280;6169;44.158;22.788;2023-07-20T16:17:07;100349.63;;;30.57;33.04
12213;BME280;6169;44.158;22.788;2023-07-20T16:22:09;100355.47;;;30.14;33.49
12213;BME280;6169;44.158;22.788;2023-07-20T16:27:12;100360.69;;;29.89;33.14
12213;BME280;6169;44.158;22.788;2023-07-20T16:32:16;100366.75;;;29.95;33.88
12213;BME280;6169;44.158;22.788;2023-07-20T16:37:18;100372.97;;;30.08;34.13
12213;BME280;6169;44.158;22.788;2023-07-20T16:42:21;100384.09;;;30.04;35.04
12213;BME280;6169;44.158;22.788;2023-07-20T16:47:25;100388.09;;;30.03;35.15
12213;BME280;6169;44.158;22.788;2023-07-20T16:52:28;100392.47;;;30.00;35.50
12213;BME280;6169;44.158;22.788;2023-07-20T16:57:30;100404.25;;;29.87;35.98
12213;BME280;6169;44.158;22.788;2023-07-20T17:02:34;100382.03;;;29.74;36.80
12213;BME280;6169;44.158;22.788;2023-07-20T17:07:37;100403.28;;;29.75;37.18
12213;BME280;6169;44.158;22.788;2023-07-20T17:12:39;100402.31;;;29.91;37.53
12213;BME280;6169;44.158;22.788;2023-07-20T17:17:43;100407.06;;;29.87;37.54
12213;BME280;6169;44.158;22.788;2023-07-20T17:22:45;100407.47;;;29.89;38.04
12213;BME280;6169;44.158;22.788;2023-07-20T17:27:47;100396.13;;;29.78;38.85
12213;BME280;6169;44.158;22.788;2023-07-20T17:32:51;100401.72;;;29.78;38.32
12213;BME280;6169;44.158;22.788;2023-07-20T17:37:53;100407.25;;;29.97;39.75
12213;BME280;6169;44.158;22.788;2023-07-20T17:42:56;100419.38;;;29.55;40.27
12213;BME280;6169;44.158;22.788;2023-07-20T17:48:00;100417.59;;;29.47;41.03
12213;BME280;6169;44.158;22.788;2023-07-20T17:53:02;100429.94;;;29.46;42.56
12213;BME280;6169;44.158;22.788;2023-07-20T17:58:04;100411.28;;;29.31;43.37
12213;BME280;6169;44.158;22.788;2023-07-20T18:03:08;100425.84;;;29.17;43.97
12213;BME280;6169;44.158;22.788;2023-07-20T18:08:10;100424.16;;;28.93;45.57
12213;BME280;6169;44.158;22.788;2023-07-20T18:13:13;100276.59;;;27.73;46.21
12213;BME280;6169;44.158;22.788;2023-07-20T18:18:17;100433.56;;;28.30;46.04
12213;BME280;6169;44.158;22.788;2023-07-20T18:23:19;100433.69;;;28.02;47.19
12213;BME280;6169;44.158;22.788;2023-07-20T18:28:21;100440.13;;;27.43;49.01
12213;BME280;6169;44.158;22.788;2023-07-20T18:33:25;100440.56;;;27.13;50.58
12213;BME280;6169;44.158;22.788;2023-07-20T18:38:28;100447.97;;;26.81;51.14
12213;BME280;6169;44.158;22.788;2023-07-20T18:43:30;100448.16;;;26.35;53.54
12213;BME280;6169;44.158;22.788;2023-07-20T18:48:34;100467.91;;;26.18;54.39
12213;BME280;6169;44.158;22.788;2023-07-20T18:53:37;100463.59;;;26.08;54.60
12213;BME280;6169;44.158;22.788;2023-07-20T18:58:39;100477.41;;;26.17;54.00
12213;BME280;6169;44.158;22.788;2023-07-20T19:03:43;100470.44;;;26.35;53.44
12213;BME280;6169;44.158;22.788;2023-07-20T19:08:45;100476.72;;;26.32;53.02
12213;BME280;6169;44.158;22.788;2023-07-20T19:13:47;100491.00;;;26.31;53.20
12213;BME280;6169;44.158;22.788;2023-07-20T19:18:51;100485.19;;;26.48;52.51
12213;BME280;6169;44.158;22.788;2023-07-20T19:23:54;100498.44;;;26.39;53.11
12213;BME280;6169;44.158;22.788;2023-07-20T19:28:56;100515.16;;;26.26;53.25
12213;BME280;6169;44.158;22.788;2023-07-20T19:34:00;100498.78;;;26.49;52.61
12213;BME280;6169;44.158;22.788;2023-07-20T19:39:03;100519.16;;;26.90;51.80
12213;BME280;6169;44.158;22.788;2023-07-20T19:44:05;100520.13;;;26.82;52.08
12213;BME280;6169;44.158;22.788;2023-07-20T19:49:11;100528.06;;;26.68;52.43
12213;BME280;6169;44.158;22.788;2023-07-20T19:54:14;100520.63;;;26.47;53.67
12213;BME280;6169;44.158;22.788;2023-07-20T19:59:16;100533.97;;;26.30;54.62
12213;BME280;6169;44.158;22.788;2023-07-20T20:04:19;100530.13;;;26.34;54.43
12213;BME280;6169;44.158;22.788;2023-07-20T20:09:22;100526.81;;;25.83;55.80
12213;BME280;6169;44.158;22.788;2023-07-20T20:14:25;100535.34;;;25.66;56.53
12213;BME280;6169;44.158;22.788;2023-07-20T20:19:30;100541.19;;;25.73;56.71
12213;BME280;6169;44.158;22.788;2023-07-20T20:24:32;100537.63;;;25.85;54.87
12213;BME280;6169;44.158;22.788;2023-07-20T20:29:34;100541.16;;;26.06;53.95
12213;BME280;6169;44.158;22.788;2023-07-20T20:34:38;100541.84;;;26.15;53.96
12213;BME280;6169;44.158;22.788;2023-07-20T20:39:41;100545.34;;;26.24;53.61
12213;BME280;6169;44.158;22.788;2023-07-20T20:44:43;100544.16;;;26.01;54.22
12213;BME280;6169;44.158;22.788;2023-07-20T20:49:47;100561.25;;;26.12;53.77
12213;BME280;6169;44.158;22.788;2023-07-20T20:54:50;100544.50;;;25.66;55.46
12213;BME280;6169;44.158;22.788;2023-07-20T20:59:52;100557.22;;;25.88;55.47
12213;BME280;6169;44.158;22.788;2023-07-20T21:04:56;100548.41;;;25.53;56.57
12213;BME280;6169;44.158;22.788;2023-07-20T21:09:58;100549.84;;;25.17;57.32
12213;BME280;6169;44.158;22.788;2023-07-20T21:15:01;100544.03;;;25.31;57.68
12213;BME280;6169;44.158;22.788;2023-07-20T21:20:08;100552.63;;;25.59;56.88
12213;BME280;6169;44.158;22.788;2023-07-20T21:25:10;100561.22;;;25.33;56.55
12213;BME280;6169;44.158;22.788;2023-07-20T21:30:13;100568.19;;;25.39;57.20
12213;BME280;6169;44.158;22.788;2023-07-20T21:35:16;100545.38;;;24.83;57.56
12213;BME280;6169;44.158;22.788;2023-07-20T21:40:19;100570.88;;;24.85;59.77
12213;BME280;6169;44.158;22.788;2023-07-20T21:45:21;100559.88;;;24.59;59.75
12213;BME280;6169;44.158;22.788;2023-07-20T21:50:25;100565.78;;;24.87;59.43
12213;BME280;6169;44.158;22.788;2023-07-20T21:55:27;100568.28;;;25.01;58.34
12213;BME280;6169;44.158;22.788;2023-07-20T22:00:29;100583.41;;;24.61;59.94
12213;BME280;6169;44.158;22.788;2023-07-20T22:05:33;100585.78;;;24.42;61.04
12213;BME280;6169;44.158;22.788;2023-07-20T22:10:35;100593.06;;;24.93;59.10
12213;BME280;6169;44.158;22.788;2023-07-20T22:15:37;100590.16;;;24.52;60.68
12213;BME280;6169;44.158;22.788;2023-07-20T22:20:40;100580.03;;;24.17;61.22
12213;BME280;6169;44.158;22.788;2023-07-20T22:25:43;100588.34;;;24.00;62.33
12213;BME280;6169;44.158;22.788;2023-07-20T22:30:45;100600.06;;;24.61;60.04
12213;BME280;6169;44.158;22.788;2023-07-20T22:35:53;100610.72;;;24.68;59.57
12213;BME280;6169;44.158;22.788;2023-07-20T22:40:56;100610.69;;;24.59;59.87
12213;BME280;6169;44.158;22.788;2023-07-20T22:45:58;100611.91;;;24.88;59.05
12213;BME280;6169;44.158;22.788;2023-07-20T22:51:02;100587.16;;;24.95;58.98
12213;BME280;6169;44.158;22.788;2023-07-20T22:56:04;100612.00;;;24.62;59.01
12213;BME280;6169;44.158;22.788;2023-07-20T23:01:08;100615.63;;;24.54;60.68
12213;BME280;6169;44.158;22.788;2023-07-20T23:06:12;100625.91;;;24.23;60.77
12213;BME280;6169;44.158;22.788;2023-07-20T23:11:14;100626.38;;;24.25;59.44
12213;BME280;6169;44.158;22.788;2023-07-20T23:16:17;100625.81;;;23.59;62.91
12213;BME280;6169;44.158;22.788;2023-07-20T23:21:21;100626.47;;;23.65;63.57
12213;BME280;6169;44.158;22.788;2023-07-20T23:26:23;100638.34;;;23.82;63.48
12213;BME280;6169;44.158;22.788;2023-07-20T23:31:25;100638.03;;;24.10;63.01
12213;BME280;6169;44.158;22.788;2023-07-20T23:36:29;100637.53;;;24.08;62.40
12213;BME280;6169;44.158;22.788;2023-07-20T23:41:31;100642.09;;;23.95;62.41
12213;BME280;6169;44.158;22.788;2023-07-20T23:46:33;100640.84;;;23.75;63.98
12213;BME280;6169;44.158;22.788;2023-07-20T23:51:36;100648.97;;;23.98;62.95
12213;BME280;6169;44.158;22.788;2023-07-20T23:56:39;100655.09;;;24.38;61.32
